sensor_id;sensor_type;location;lat;lon;timestamp;P1;durP1;ratioP1;P2;durP2;ratioP2
40248;SDS011;25969;49.970;11.062;2022-12-18T05:10:37;47.27;;;13.43;;
40248;SDS011;25969;49.970;11.062;2022-12-18T05:20:38;45.70;;;13.23;;
40248;SDS011;25969;49.970;11.062;2022-12-18T05:30:39;33.60;;;11.33;;
40248;SDS011;25969;49.970;11.062;2022-12-18T05:40:41;34.77;;;10.47;;
40248;SDS011;25969;49.970;11.062;2022-12-18T05:50:43;26.00;;;10.63;;
40248;SDS011;25969;49.970;11.062;2022-12-18T06:00:46;41.20;;;10.27;;
40248;SDS011;25969;49.970;11.062;2022-12-18T06:10:49;37.03;;;12.70;;
40248;SDS011;25969;49.970;11.062;2022-12-18T06:20:55;32.23;;;10.67;;
40248;SDS011;25969;49.970;11.062;2022-12-18T06:30:57;42.27;;;11.03;;
40248;SDS011;25969;49.970;11.062;2022-12-18T06:40:57;35.53;;;11.37;;
40248;SDS011;25969;49.970;11.062;2022-12-18T06:50:58;46.30;;;14.73;;
40248;SDS011;25969;49.970;11.062;2022-12-18T07:01:00;32.50;;;11.37;;
40248;SDS011;25969;49.970;11.062;2022-12-18T07:11:02;25.53;;;9.07;;
40248;SDS011;25969;49.970;11.062;2022-12-18T07:21:08;20.93;;;8.30;;
40248;SDS011;25969;49.970;11.062;2022-12-18T07:31:15;37.00;;;13.00;;
40248;SDS011;25969;49.970;11.062;2022-12-18T07:41:18;39.73;;;12.47;;
40248;SDS011;25969;49.970;11.062;2022-12-18T07:51:20;43.80;;;14.33;;
40248;SDS011;25969;49.970;11.062;2022-12-18T08:01:20;34.93;;;11.67;;
40248;SDS011;25969;49.970;11.062;2022-12-18T08:11:22;20.67;;;8.07;;
40248;SDS011;25969;49.970;11.062;2022-12-18T08:31:50;25.60;;;8.47;;
40248;SDS011;25969;49.970;11.062;2022-12-18T08:41:50;31.02;;;11.15;;
40248;SDS011;25969;49.970;11.062;2022-12-18T08:52:10;32.43;;;10.07;;
40248;SDS011;25969;49.970;11.062;2022-12-18T09:02:11;17.35;;;6.75;;
40248;SDS011;25969;49.970;11.062;2022-12-18T09:12:12;26.80;;;8.73;;
40248;SDS011;25969;49.970;11.062;2022-12-18T09:22:12;22.53;;;10.43;;
40248;SDS011;25969;49.970;11.062;2022-12-18T09:32:13;21.87;;;10.50;;
40248;SDS011;25969;49.970;11.062;2022-12-18T09:42:19;26.17;;;13.85;;
40248;SDS011;25969;49.970;11.062;2022-12-18T09:52:23;25.27;;;12.65;;
40248;SDS011;25969;49.970;11.062;2022-12-18T10:02:30;23.48;;;12.65;;
40248;SDS011;25969;49.970;11.062;2022-12-18T10:22:43;24.10;;;13.88;;
40248;SDS011;25969;49.970;11.062;2022-12-18T10:32:50;28.80;;;16.03;;
40248;SDS011;25969;49.970;11.062;2022-12-18T10:53:13;27.30;;;15.23;;
40248;SDS011;25969;49.970;11.062;2022-12-18T11:03:34;28.45;;;17.17;;
40248;SDS011;25969;49.970;11.062;2022-12-18T11:13:37;24.13;;;14.68;;
40248;SDS011;25969;49.970;11.062;2022-12-18T11:23:45;15.25;;;9.43;;
40248;SDS011;25969;49.970;11.062;2022-12-18T11:34:02;18.05;;;10.30;;
40248;SDS011;25969;49.970;11.062;2022-12-18T11:44:13;14.90;;;8.67;;
40248;SDS011;25969;49.970;11.062;2022-12-18T11:54:18;13.10;;;7.72;;
40248;SDS011;25969;49.970;11.062;2022-12-18T12:25:09;16.73;;;8.57;;
40248;SDS011;25969;49.970;11.062;2022-12-18T12:45:50;16.15;;;7.80;;
40248;SDS011;25969;49.970;11.062;2022-12-18T12:56:01;17.85;;;7.65;;
40248;SDS011;25969;49.970;11.062;2022-12-18T13:16:09;17.40;;;8.13;;
40248;SDS011;25969;49.970;11.062;2022-12-18T13:46:23;20.60;;;7.77;;
40248;SDS011;25969;49.970;11.062;2022-12-18T13:56:45;19.83;;;8.17;;
40248;SDS011;25969;49.970;11.062;2022-12-18T14:06:47;25.50;;;8.00;;
40248;SDS011;25969;49.970;11.062;2022-12-18T14:16:51;20.20;;;7.07;;
40248;SDS011;25969;49.970;11.062;2022-12-18T14:26:52;20.77;;;7.27;;
40248;SDS011;25969;49.970;11.062;2022-12-18T14:36:53;25.87;;;8.03;;
40248;SDS011;25969;49.970;11.062;2022-12-18T14:46:56;22.63;;;7.53;;
40248;SDS011;25969;49.970;11.062;2022-12-18T14:57:00;24.63;;;8.37;;
40248;SDS011;25969;49.970;11.062;2022-12-18T15:07:11;27.73;;;8.87;;
40248;SDS011;25969;49.970;11.062;2022-12-18T15:17:22;19.37;;;7.40;;
40248;SDS011;25969;49.970;11.062;2022-12-18T15:37:27;21.47;;;6.77;;
40248;SDS011;25969;49.970;11.062;2022-12-18T15:47:28;13.97;;;4.67;;
40248;SDS011;25969;49.970;11.062;2022-12-18T15:57:29;28.57;;;8.53;;
40248;SDS011;25969;49.970;11.062;2022-12-18T16:07:29;18.53;;;6.20;;
40248;SDS011;25969;49.970;11.062;2022-12-18T16:17:30;20.60;;;7.77;;
40248;SDS011;25969;49.970;11.062;2022-12-18T16:27:31;22.13;;;7.00;;
40248;SDS011;25969;49.970;11.062;2022-12-18T16:37:33;21.77;;;5.83;;
40248;SDS011;25969;49.970;11.062;2022-12-18T16:47:34;20.97;;;8.13;;
40248;SDS011;25969;49.970;11.062;2022-12-18T16:57:35;22.47;;;7.13;;
40248;SDS011;25969;49.970;11.062;2022-12-18T17:07:36;21.73;;;6.77;;
40248;SDS011;25969;49.970;11.062;2022-12-18T17:17:37;20.40;;;7.93;;
40248;SDS011;25969;49.970;11.062;2022-12-18T17:27:38;16.47;;;6.37;;
40248;SDS011;25969;49.970;11.062;2022-12-18T17:37:39;31.07;;;10.73;;
40248;SDS011;25969;49.970;11.062;2022-12-18T17:47:40;21.53;;;8.07;;
40248;SDS011;25969;49.970;11.062;2022-12-18T17:57:41;24.90;;;9.23;;
40248;SDS011;25969;49.970;11.062;2022-12-18T18:07:42;28.10;;;8.70;;
40248;SDS011;25969;49.970;11.062;2022-12-18T18:17:42;22.83;;;8.03;;
40248;SDS011;25969;49.970;11.062;2022-12-18T18:27:43;28.40;;;11.20;;
40248;SDS011;25969;49.970;11.062;2022-12-18T18:37:46;23.23;;;8.13;;
40248;SDS011;25969;49.970;11.062;2022-12-18T18:47:47;18.80;;;7.37;;
40248;SDS011;25969;49.970;11.062;2022-12-18T19:07:50;18.80;;;6.33;;
40248;SDS011;25969;49.970;11.062;2022-12-18T19:17:51;16.63;;;6.73;;
40248;SDS011;25969;49.970;11.062;2022-12-18T19:27:52;18.67;;;6.97;;
40248;SDS011;25969;49.970;11.062;2022-12-18T19:37:53;21.00;;;7.13;;
40248;SDS011;25969;49.970;11.062;2022-12-18T19:47:53;17.83;;;6.33;;
40248;SDS011;25969;49.970;11.062;2022-12-18T19:57:55;44.13;;;14.97;;
40248;SDS011;25969;49.970;11.062;2022-12-18T20:07:56;22.30;;;8.13;;
40248;SDS011;25969;49.970;11.062;2022-12-18T20:17:57;30.17;;;10.43;;
40248;SDS011;25969;49.970;11.062;2022-12-18T20:27:58;18.67;;;7.13;;
40248;SDS011;25969;49.970;11.062;2022-12-18T20:37:59;20.37;;;7.43;;
40248;SDS011;25969;49.970;11.062;2022-12-18T20:47:59;21.40;;;8.20;;
40248;SDS011;25969;49.970;11.062;2022-12-18T20:58:01;20.52;;;7.30;;
40248;SDS011;25969;49.970;11.062;2022-12-18T21:08:02;22.73;;;9.03;;
40248;SDS011;25969;49.970;11.062;2022-12-18T21:18:03;25.83;;;7.67;;
40248;SDS011;25969;49.970;11.062;2022-12-18T21:28:03;25.47;;;9.40;;
40248;SDS011;25969;49.970;11.062;2022-12-18T21:38:04;23.60;;;8.77;;
40248;SDS011;25969;49.970;11.062;2022-12-18T21:48:05;24.07;;;8.43;;
40248;SDS011;25969;49.970;11.062;2022-12-18T21:58:06;28.33;;;9.23;;
40248;SDS011;25969;49.970;11.062;2022-12-18T22:08:07;23.73;;;8.93;;
40248;SDS011;25969;49.970;11.062;2022-12-18T22:18:07;32.53;;;11.70;;
40248;SDS011;25969;49.970;11.062;2022-12-18T22:28:11;28.30;;;9.50;;
40248;SDS011;25969;49.970;11.062;2022-12-18T22:38:30;25.97;;;9.50;;
40248;SDS011;25969;49.970;11.062;2022-12-18T22:48:31;26.07;;;9.13;;
40248;SDS011;25969;49.970;11.062;2022-12-18T22:58:32;27.23;;;9.03;;
